createdAt,value
2023-02-27T00:00:12.842Z,64.2
2023-02-27T00:01:29.825Z,64.3
2023-02-27T00:02:46.831Z,64.7
2023-02-27T00:04:03.882Z,65.1
2023-02-27T00:05:20.856Z,65.6
2023-02-27T00:06:37.770Z,66
2023-02-27T00:07:54.816Z,66.4
2023-02-27T00:09:11.810Z,66.4
2023-02-27T00:10:28.782Z,66.1
2023-02-27T00:11:45.790Z,66
2023-02-27T00:13:02.856Z,66
2023-02-27T00:14:19.853Z,66.1
2023-02-27T00:15:36.934Z,66
2023-02-27T00:16:53.821Z,65.4
2023-02-27T00:18:10.853Z,65.1
2023-02-27T00:19:27.915Z,64.6
2023-02-27T00:20:44.828Z,64.2
2023-02-27T00:22:01.783Z,64
2023-02-27T00:23:18.786Z,64
2023-02-27T00:24:35.828Z,63.8
2023-02-27T00:25:52.838Z,63.9
2023-02-27T00:27:09.810Z,64.2
2023-02-27T00:28:26.811Z,64.5
2023-02-27T00:29:43.846Z,64.8
2023-02-27T00:31:01.011Z,64.9
2023-02-27T00:32:17.846Z,65
2023-02-27T00:33:34.846Z,65.5
2023-02-27T00:34:51.811Z,65.9
2023-02-27T00:36:08.872Z,65.9
2023-02-27T00:37:25.807Z,65.4
2023-02-27T00:38:42.823Z,65.3
2023-02-27T00:39:59.809Z,65.5
2023-02-27T00:41:17.003Z,65.5
2023-02-27T00:42:33.854Z,65.2
2023-02-27T00:43:50.851Z,65.1
2023-02-27T00:45:07.933Z,65.1
2023-02-27T00:46:24.917Z,64.8
2023-02-27T00:47:41.826Z,64.5
2023-02-27T00:48:58.827Z,64.1
2023-02-27T00:50:15.852Z,64
2023-02-27T00:51:32.836Z,63.9
2023-02-27T00:52:49.867Z,64.3
2023-02-27T00:54:06.850Z,64.8
2023-02-27T00:55:25.289Z,64.8
2023-02-27T00:56:40.894Z,64.6
2023-02-27T00:57:57.855Z,64.6
2023-02-27T00:59:14.878Z,64.6
2023-02-27T01:00:31.971Z,64.9
2023-02-27T01:01:48.922Z,65.1
2023-02-27T01:03:05.853Z,65.5
2023-02-27T01:04:22.843Z,66.1
2023-02-27T01:05:39.895Z,66.3
2023-02-27T01:06:56.848Z,65.9
2023-02-27T01:08:13.853Z,65.9
2023-02-27T01:09:30.853Z,66.2
2023-02-27T01:10:47.887Z,66.5
2023-02-27T01:12:04.868Z,67
2023-02-27T01:13:21.860Z,67
2023-02-27T01:14:38.899Z,67.4
2023-02-27T01:15:55.906Z,67.4
2023-02-27T01:17:12.917Z,67.4
2023-02-27T01:18:29.868Z,67.5
2023-02-27T01:19:46.896Z,67.3
2023-02-27T01:21:03.898Z,67
2023-02-27T01:22:20.880Z,66.8
2023-02-27T01:23:37.927Z,66.5
2023-02-27T01:24:54.910Z,66.2
2023-02-27T01:26:11.918Z,65.8
2023-02-27T01:27:28.884Z,65.4
2023-02-27T01:28:45.880Z,65.2
2023-02-27T01:30:02.888Z,65.1
2023-02-27T01:31:19.961Z,65.3
2023-02-27T01:32:36.957Z,65.4
2023-02-27T01:33:53.890Z,65.6
2023-02-27T01:35:10.893Z,65.9
2023-02-27T01:36:27.948Z,66
2023-02-27T01:37:44.890Z,65.9
2023-02-27T01:39:01.981Z,66.1
2023-02-27T01:40:18.945Z,65.9
2023-02-27T01:41:35.967Z,66.2
2023-02-27T01:42:52.926Z,66.2
2023-02-27T01:44:09.876Z,66
2023-02-27T01:45:26.905Z,65.6
2023-02-27T01:46:43.941Z,65.4
2023-02-27T01:48:00.916Z,65.4
2023-02-27T01:49:17.985Z,65.3
2023-02-27T01:50:34.934Z,65.4
2023-02-27T01:51:51.893Z,65.3
2023-02-27T01:53:08.904Z,65.4
2023-02-27T01:54:25.951Z,65.8
2023-02-27T01:55:42.914Z,65.6
2023-02-27T01:56:59.947Z,65.3
2023-02-27T01:58:16.947Z,65.1
2023-02-27T01:59:33.908Z,65
2023-02-27T02:00:51.017Z,64.9
2023-02-27T02:02:08.046Z,64.7
2023-02-27T02:03:24.953Z,64.8
2023-02-27T02:04:41.948Z,65
2023-02-27T02:05:58.964Z,65.3
2023-02-27T02:07:16.010Z,65.4
2023-02-27T02:08:32.951Z,65.5
2023-02-27T02:09:49.923Z,65.7
2023-02-27T02:11:06.958Z,65.8
2023-02-27T02:12:23.956Z,65.7
2023-02-27T02:13:40.948Z,65.4
2023-02-27T02:14:57.929Z,65.2
2023-02-27T02:16:14.960Z,65.1
2023-02-27T02:17:31.975Z,65.1
2023-02-27T02:18:48.999Z,65.3
2023-02-27T02:20:06.050Z,65.3
2023-02-27T02:21:22.970Z,65.4
2023-02-27T02:22:40.008Z,65.4
2023-02-27T02:23:56.951Z,65.3
2023-02-27T02:25:13.968Z,65.3
2023-02-27T02:26:33.111Z,65.6
2023-02-27T02:27:48.028Z,66
2023-02-27T02:29:04.960Z,66
2023-02-27T02:30:21.993Z,66.2
2023-02-27T02:31:39.110Z,66.1
2023-02-27T02:32:56.004Z,66.4
2023-02-27T02:34:13.044Z,66.5
2023-02-27T02:35:29.984Z,66.6
2023-02-27T02:36:46.988Z,66.7
2023-02-27T02:38:03.964Z,66.6
2023-02-27T02:39:21.014Z,66.4
2023-02-27T02:40:37.993Z,66.3
2023-02-27T02:41:54.967Z,65.9
2023-02-27T02:43:12.013Z,65.8
2023-02-27T02:44:28.990Z,66
2023-02-27T02:45:46.049Z,65.9
2023-02-27T02:47:03.000Z,65.6
2023-02-27T02:48:20.010Z,65.2
2023-02-27T02:49:37.038Z,64.8
2023-02-27T02:50:54.034Z,64.5
2023-02-27T02:52:11.005Z,64.4
2023-02-27T02:53:36.022Z,65.1
2023-02-27T02:54:45.045Z,65.1
2023-02-27T02:56:02.015Z,65
2023-02-27T02:57:19.022Z,65.4
2023-02-27T02:58:35.993Z,65.5
2023-02-27T02:59:53.045Z,65.3
2023-02-27T03:01:10.038Z,65.1
2023-02-27T03:02:27.010Z,64.9
2023-02-27T03:03:44.052Z,65
2023-02-27T03:05:01.076Z,64.7
2023-02-27T03:06:18.072Z,64.6
2023-02-27T03:07:35.054Z,64.7
2023-02-27T03:08:51.993Z,64.9
2023-02-27T03:10:09.024Z,65.4
2023-02-27T03:11:26.390Z,65.8
2023-02-27T03:12:43.071Z,65.5
2023-02-27T03:14:00.034Z,65.3
2023-02-27T03:15:17.038Z,65.3
2023-02-27T03:16:34.063Z,65.4
2023-02-27T03:17:51.013Z,65.4
2023-02-27T03:19:08.044Z,65.6
2023-02-27T03:20:25.073Z,65.5
2023-02-27T03:21:42.042Z,65.6
2023-02-27T03:22:59.039Z,65.5
2023-02-27T03:24:16.017Z,65.3
2023-02-27T03:25:33.032Z,65.5
2023-02-27T03:26:50.177Z,65.4
2023-02-27T03:28:07.099Z,65.7
2023-02-27T03:29:24.043Z,65.7
2023-02-27T03:30:41.234Z,65.9
2023-02-27T03:31:58.087Z,65.8
2023-02-27T03:33:15.067Z,65.8
2023-02-27T03:34:32.040Z,65.5
2023-02-27T03:35:49.076Z,65.7
2023-02-27T03:37:06.029Z,65.8
2023-02-27T03:38:23.098Z,66
2023-02-27T03:39:40.132Z,66.3
2023-02-27T03:40:57.051Z,66.3
2023-02-27T03:42:14.088Z,66.8
2023-02-27T03:43:31.125Z,66.7
2023-02-27T03:44:48.067Z,67.1
2023-02-27T03:46:05.104Z,67.4
2023-02-27T03:47:22.093Z,67.4
2023-02-27T03:48:39.108Z,67.4
2023-02-27T03:49:56.040Z,67.7
2023-02-27T03:51:13.165Z,68.1
2023-02-27T03:52:30.051Z,68
2023-02-27T03:53:47.108Z,68.1
2023-02-27T03:55:04.103Z,68.3
2023-02-27T03:56:21.064Z,68.2
2023-02-27T03:57:38.075Z,67.8
2023-02-27T03:58:55.060Z,67.7
2023-02-27T04:00:12.084Z,67.6
2023-02-27T04:01:29.481Z,67.4
2023-02-27T04:02:46.113Z,67.4
2023-02-27T04:04:03.099Z,67
2023-02-27T04:05:20.080Z,66.4
2023-02-27T04:06:37.129Z,65.7
2023-02-27T04:07:54.097Z,65.4
2023-02-27T04:09:11.052Z,65.3
2023-02-27T04:10:28.091Z,65.1
2023-02-27T04:11:45.061Z,64.9
2023-02-27T04:13:02.789Z,64.8
2023-02-27T04:14:20.082Z,65.1
2023-02-27T04:15:37.088Z,65.2
2023-02-27T04:16:54.096Z,65.2
2023-02-27T04:18:11.159Z,65
2023-02-27T04:19:28.109Z,65
2023-02-27T04:20:45.109Z,64.9
2023-02-27T04:22:02.113Z,64.9
2023-02-27T04:23:19.123Z,64.5
2023-02-27T04:24:36.157Z,64.1
2023-02-27T04:25:53.088Z,63.7
2023-02-27T04:27:10.087Z,63.4
2023-02-27T04:28:27.118Z,63.1
2023-02-27T04:29:44.126Z,63.3
2023-02-27T04:31:01.195Z,63.1
2023-02-27T04:32:18.232Z,62.9
2023-02-27T04:33:35.159Z,63.1
2023-02-27T04:34:52.133Z,63.2
2023-02-27T04:36:10.269Z,63.3
2023-02-27T04:37:26.139Z,63.3
2023-02-27T04:38:43.132Z,63.5
2023-02-27T04:40:00.162Z,63.8
2023-02-27T04:41:17.146Z,64
2023-02-27T04:42:34.138Z,64.5
2023-02-27T04:43:51.193Z,65.1
2023-02-27T04:45:08.154Z,65
2023-02-27T04:46:25.126Z,65.2
2023-02-27T04:47:42.135Z,65.3
2023-02-27T04:48:59.188Z,65.3
2023-02-27T04:50:16.150Z,65.5
2023-02-27T04:51:33.105Z,65.7
2023-02-27T04:52:50.182Z,65.9
2023-02-27T04:54:07.132Z,65.8
2023-02-27T04:55:24.137Z,65.8
2023-02-27T04:56:41.161Z,65.6
2023-02-27T04:57:58.197Z,65.3
2023-02-27T04:59:15.173Z,65.8
2023-02-27T05:00:32.152Z,66
2023-02-27T05:01:49.260Z,66.4
2023-02-27T05:03:06.181Z,66.9
2023-02-27T05:04:23.175Z,67.3
2023-02-27T05:05:40.156Z,67.8
2023-02-27T05:06:57.151Z,68.2
2023-02-27T05:08:14.179Z,68.4
2023-02-27T05:09:31.162Z,68.6
2023-02-27T05:10:48.166Z,68.3
2023-02-27T05:12:05.194Z,68.1
2023-02-27T05:13:22.190Z,67.8
2023-02-27T05:14:39.189Z,67.6
2023-02-27T05:15:56.188Z,67.4
2023-02-27T05:17:13.183Z,67.5
2023-02-27T05:18:30.155Z,67.2
2023-02-27T05:19:47.275Z,67.2
2023-02-27T05:21:04.181Z,66.9
2023-02-27T05:22:21.173Z,67
2023-02-27T05:23:38.242Z,66.8
2023-02-27T05:24:55.195Z,66.8
2023-02-27T05:26:12.182Z,66.9
2023-02-27T05:27:29.185Z,67
2023-02-27T05:28:46.216Z,66.6
2023-02-27T05:30:03.318Z,66.4
2023-02-27T05:31:20.260Z,65.9
2023-02-27T05:32:37.255Z,65.3
2023-02-27T05:33:54.182Z,65.1
2023-02-27T05:35:11.228Z,64.7
2023-02-27T05:36:28.198Z,64.1
2023-02-27T05:37:45.230Z,63.9
2023-02-27T05:39:02.229Z,63.7
2023-02-27T05:40:19.270Z,63.4
2023-02-27T05:41:36.193Z,63
2023-02-27T05:42:53.221Z,62.7
2023-02-27T05:44:10.189Z,62.7
2023-02-27T05:45:27.238Z,63
2023-02-27T05:46:44.216Z,63.5
2023-02-27T05:48:01.213Z,63.9
2023-02-27T05:49:18.200Z,64.3
2023-02-27T05:50:35.245Z,64.9
2023-02-27T05:51:53.187Z,65.2
2023-02-27T05:53:10.437Z,65.3
2023-02-27T05:54:27.260Z,65.4
2023-02-27T05:55:44.260Z,65.9
2023-02-27T05:57:01.231Z,66.1
2023-02-27T05:58:18.248Z,66.3
2023-02-27T05:59:35.206Z,66.2
2023-02-27T06:00:52.254Z,66.4
2023-02-27T06:02:09.295Z,66.5
2023-02-27T06:03:26.307Z,66.5
2023-02-27T06:04:43.231Z,66.5
2023-02-27T06:06:00.222Z,66.6
2023-02-27T06:07:17.217Z,67.2
2023-02-27T06:08:34.409Z,68
2023-02-27T06:09:51.261Z,68.8
2023-02-27T06:11:08.257Z,69.3
2023-02-27T06:12:25.239Z,69.7
2023-02-27T06:13:42.392Z,69.9
2023-02-27T06:14:59.234Z,69.9
2023-02-27T06:16:16.360Z,70.1
2023-02-27T06:17:33.291Z,70.3
2023-02-27T06:18:50.289Z,70.5
2023-02-27T06:20:07.256Z,70.5
2023-02-27T06:21:24.284Z,70.3
2023-02-27T06:22:41.365Z,70
2023-02-27T06:23:58.264Z,69.6
2023-02-27T06:25:15.390Z,69.5
2023-02-27T06:26:32.399Z,69.2
2023-02-27T06:27:49.282Z,68.9
2023-02-27T06:29:06.281Z,68.6
2023-02-27T06:30:23.271Z,68.6
2023-02-27T06:31:40.314Z,69
2023-02-27T06:32:57.300Z,69.3
2023-02-27T06:34:14.351Z,69.2
2023-02-27T06:35:31.327Z,68.9
2023-02-27T06:36:48.325Z,69
2023-02-27T06:38:05.291Z,69.2
2023-02-27T06:39:22.260Z,69
2023-02-27T06:40:39.380Z,69.3
2023-02-27T06:41:56.272Z,69.6
2023-02-27T06:43:13.299Z,69.3
2023-02-27T06:44:30.348Z,69.2
2023-02-27T06:45:47.320Z,68.9
2023-02-27T06:47:04.305Z,68.4
2023-02-27T06:48:21.280Z,68.5
2023-02-27T06:49:38.634Z,68.4
2023-02-27T06:50:55.384Z,68.6
2023-02-27T06:52:12.608Z,68.7
2023-02-27T06:53:29.309Z,68.9
2023-02-27T06:54:46.452Z,68.5
2023-02-27T06:56:03.299Z,68.4
2023-02-27T06:57:20.353Z,68.7
2023-02-27T06:58:37.319Z,68.6
2023-02-27T06:59:54.301Z,68.5
2023-02-27T07:01:11.378Z,69.1
2023-02-27T07:02:28.356Z,69.3
2023-02-27T07:03:45.293Z,69.3
2023-02-27T07:05:05.265Z,69.4
2023-02-27T07:06:19.307Z,69.3
2023-02-27T07:07:37.642Z,69
2023-02-27T07:09:01.558Z,69
2023-02-27T07:10:10.320Z,69.4
2023-02-27T07:11:27.321Z,69.6
2023-02-27T07:12:44.323Z,69.4
2023-02-27T07:14:01.319Z,69.2
2023-02-27T07:15:18.301Z,69.2
2023-02-27T07:16:35.297Z,69.4
2023-02-27T07:17:52.366Z,69.8
2023-02-27T07:19:09.315Z,69.2
2023-02-27T07:20:26.322Z,68.7
2023-02-27T07:21:43.328Z,68.3
2023-02-27T07:23:00.364Z,68.3
2023-02-27T07:24:17.327Z,68.4
2023-02-27T07:25:34.335Z,69.1
2023-02-27T07:26:51.411Z,70.1
2023-02-27T07:28:08.382Z,70.6
2023-02-27T07:29:25.305Z,70.7
2023-02-27T07:30:42.351Z,71
2023-02-27T07:31:59.376Z,70.6
2023-02-27T07:33:16.418Z,70.3
2023-02-27T07:34:33.391Z,70.1
2023-02-27T07:35:50.331Z,70.1
2023-02-27T07:37:07.352Z,70.4
2023-02-27T07:38:24.390Z,70.3
2023-02-27T07:39:41.423Z,69.9
2023-02-27T07:40:58.331Z,69.2
2023-02-27T07:42:15.406Z,69.2
2023-02-27T07:43:32.447Z,68.6
2023-02-27T07:44:49.484Z,68.1
2023-02-27T07:46:06.465Z,67.6
2023-02-27T07:47:23.417Z,66.8
2023-02-27T07:48:40.399Z,66.3
2023-02-27T07:49:57.379Z,65.8
2023-02-27T07:51:14.336Z,65.2
2023-02-27T07:52:31.420Z,64.8
2023-02-27T07:53:48.360Z,65.2
2023-02-27T07:55:05.388Z,65.4
2023-02-27T07:56:22.455Z,65.8
2023-02-27T07:57:39.437Z,66.2
2023-02-27T07:58:56.433Z,66.4
2023-02-27T08:00:13.415Z,67
2023-02-27T08:01:30.411Z,67.3
2023-02-27T08:02:47.452Z,67.9
2023-02-27T08:04:04.374Z,68.4
2023-02-27T08:05:21.482Z,68.7
2023-02-27T08:06:38.372Z,68.7
2023-02-27T08:07:55.456Z,68.8
2023-02-27T08:09:12.385Z,69.2
2023-02-27T08:10:29.570Z,69
2023-02-27T08:11:48.840Z,69.2
2023-02-27T08:13:03.522Z,69.6
2023-02-27T08:14:20.423Z,69.7
2023-02-27T08:15:37.601Z,69
2023-02-27T08:16:54.528Z,67.7
2023-02-27T08:18:11.673Z,66.5
2023-02-27T08:19:28.457Z,66.1
2023-02-27T08:20:45.464Z,66.1
2023-02-27T08:22:02.463Z,65.7
2023-02-27T08:23:19.470Z,65.4
2023-02-27T08:24:36.668Z,65.2
2023-02-27T08:25:53.394Z,64.7
2023-02-27T08:27:10.425Z,64.4
2023-02-27T08:28:27.716Z,63.9
2023-02-27T08:29:44.510Z,63.5
2023-02-27T08:31:01.561Z,63.5
2023-02-27T08:32:18.523Z,64
2023-02-27T08:33:35.464Z,64.8
2023-02-27T08:34:52.453Z,64.8
2023-02-27T08:36:09.494Z,65.2
2023-02-27T08:37:26.521Z,65.9
2023-02-27T08:38:43.418Z,66.2
2023-02-27T08:40:00.496Z,67
2023-02-27T08:41:17.455Z,66.7
2023-02-27T08:42:34.423Z,66.4
2023-02-27T08:43:51.455Z,66.2
2023-02-27T08:45:08.602Z,65.8
2023-02-27T08:46:25.677Z,65
2023-02-27T08:47:42.477Z,64.4
2023-02-27T08:48:59.585Z,64
2023-02-27T08:50:16.686Z,62.5
2023-02-27T08:51:33.808Z,62.1
2023-02-27T08:52:50.441Z,61.5
2023-02-27T08:54:07.423Z,60.1
2023-02-27T08:55:24.502Z,59.2
2023-02-27T08:56:41.474Z,58.6
2023-02-27T08:57:58.521Z,58
2023-02-27T08:59:15.672Z,57.4
2023-02-27T09:00:32.656Z,57.1
2023-02-27T09:01:49.598Z,56.4
2023-02-27T09:03:06.545Z,55.9
2023-02-27T09:04:23.460Z,55.2
2023-02-27T09:05:40.504Z,55.3
2023-02-27T09:06:57.477Z,55.2
2023-02-27T09:08:14.467Z,54.9
2023-02-27T09:09:31.461Z,55.5
2023-02-27T09:10:48.448Z,55.7
2023-02-27T09:12:05.497Z,56.3
2023-02-27T09:13:22.505Z,56.2
2023-02-27T09:14:39.516Z,56.5
2023-02-27T09:15:56.455Z,56.8
2023-02-27T09:17:13.478Z,56.2
2023-02-27T09:18:30.519Z,55.7
2023-02-27T09:19:47.525Z,55.4
2023-02-27T09:21:04.559Z,55.2
2023-02-27T09:22:21.489Z,55.9
2023-02-27T09:23:38.746Z,56
2023-02-27T09:24:55.525Z,56.9
2023-02-27T09:26:12.525Z,57.7
2023-02-27T09:27:29.489Z,58.8
2023-02-27T09:28:46.513Z,60.2
2023-02-27T09:30:03.530Z,61
2023-02-27T09:31:20.512Z,61.3
2023-02-27T09:32:37.503Z,60.1
2023-02-27T09:33:54.588Z,58.9
2023-02-27T09:35:11.501Z,59
2023-02-27T09:36:28.812Z,58.8
2023-02-27T09:37:45.516Z,59.3
2023-02-27T09:39:02.506Z,59.2
2023-02-27T09:40:19.522Z,59.3
2023-02-27T09:41:36.495Z,59.5
2023-02-27T09:42:53.559Z,59.1
2023-02-27T09:44:10.513Z,58.8
2023-02-27T09:45:27.608Z,59.1
2023-02-27T09:46:44.484Z,59.5
2023-02-27T09:48:01.504Z,59.6
2023-02-27T09:49:18.529Z,60.1
2023-02-27T09:50:35.543Z,60.3
2023-02-27T09:51:53.466Z,60.7
2023-02-27T09:53:09.517Z,60.9
2023-02-27T09:54:26.533Z,61.3
2023-02-27T09:55:43.526Z,62.1
2023-02-27T09:57:00.518Z,61.9
2023-02-27T09:58:17.517Z,62.2
2023-02-27T09:59:34.546Z,62.1
2023-02-27T10:00:51.572Z,61.9
2023-02-27T10:02:08.618Z,61.5
2023-02-27T10:03:25.560Z,61.4
2023-02-27T10:04:42.514Z,61.2
2023-02-27T10:05:59.755Z,61.6
2023-02-27T10:07:16.541Z,61.9
2023-02-27T10:08:33.559Z,62.8
2023-02-27T10:09:50.554Z,63.5
2023-02-27T10:11:07.519Z,63.6
2023-02-27T10:12:25.124Z,62.4
2023-02-27T10:13:42.579Z,62
2023-02-27T10:14:59.546Z,61.5
2023-02-27T10:16:17.100Z,60.5
2023-02-27T10:17:33.533Z,59.6
2023-02-27T10:18:50.533Z,58.9
2023-02-27T10:20:07.761Z,57.6
2023-02-27T10:21:24.734Z,56.2
2023-02-27T10:22:41.552Z,54.8
2023-02-27T10:23:58.565Z,53.5
2023-02-27T10:25:30.116Z,52.1
2023-02-27T10:26:32.745Z,50.6
2023-02-27T10:27:49.545Z,50.4
2023-02-27T10:29:06.552Z,50.1
2023-02-27T10:30:29.663Z,50
2023-02-27T10:31:40.641Z,50.4
2023-02-27T10:32:57.584Z,50.8
2023-02-27T10:34:14.583Z,52
2023-02-27T10:35:31.570Z,52.8
2023-02-27T10:36:49.164Z,53.4
2023-02-27T10:38:05.584Z,52.9
2023-02-27T10:39:22.899Z,51.8
2023-02-27T10:40:39.585Z,51.1
2023-02-27T10:41:56.598Z,50.8
2023-02-27T10:43:13.578Z,50.3
2023-02-27T10:44:30.620Z,50
2023-02-27T10:45:47.578Z,49.8
2023-02-27T10:47:04.655Z,49.6
2023-02-27T10:48:21.580Z,49.9
2023-02-27T10:49:38.578Z,50.4
2023-02-27T10:50:55.600Z,50.1
2023-02-27T10:52:12.598Z,49.9
2023-02-27T10:53:29.585Z,49.8
2023-02-27T10:54:46.670Z,50.4
2023-02-27T10:56:04.332Z,51.1
2023-02-27T10:57:21.609Z,51.6
2023-02-27T10:58:38.616Z,52
2023-02-27T10:59:55.741Z,52
2023-02-27T11:01:12.741Z,52.1
2023-02-27T11:02:29.890Z,52.4
2023-02-27T11:03:46.638Z,52.9
2023-02-27T11:05:03.637Z,53.9
2023-02-27T11:06:20.692Z,54
2023-02-27T11:07:37.596Z,53.7
2023-02-27T11:08:54.637Z,52.2
2023-02-27T11:10:11.699Z,51.6
2023-02-27T11:11:30.474Z,51
2023-02-27T11:12:47.678Z,49.2
2023-02-27T11:14:05.096Z,49.1
2023-02-27T11:15:21.831Z,49.7
2023-02-27T11:16:38.645Z,50.5
2023-02-27T11:17:55.810Z,51.2
2023-02-27T11:19:14.440Z,52.3
2023-02-27T11:20:29.694Z,53.4
2023-02-27T11:21:46.664Z,54
2023-02-27T11:23:03.765Z,54.5
2023-02-27T11:24:21.107Z,54.4
2023-02-27T11:25:37.615Z,53.6
2023-02-27T11:26:54.672Z,52.7
2023-02-27T11:28:11.697Z,52
2023-02-27T11:29:28.655Z,51.6
2023-02-27T11:30:45.699Z,51.1
2023-02-27T11:32:02.762Z,51
2023-02-27T11:33:19.790Z,50.6
2023-02-27T11:34:36.829Z,51.8
2023-02-27T11:35:57.145Z,52.2
2023-02-27T11:37:10.929Z,53.3
2023-02-27T11:38:27.643Z,54.8
2023-02-27T11:39:45.372Z,55.8
2023-02-27T11:41:01.652Z,56.5
2023-02-27T11:42:18.735Z,56.9
2023-02-27T11:43:35.676Z,56.7
2023-02-27T11:44:52.729Z,56.8
2023-02-27T11:46:14.137Z,56.8
2023-02-27T11:47:26.750Z,57.2
2023-02-27T11:48:43.772Z,57.3
2023-02-27T11:50:00.785Z,57.8
2023-02-27T11:51:17.689Z,58.4
2023-02-27T11:52:35.774Z,58.5
2023-02-27T11:53:52.691Z,58.4
2023-02-27T11:55:09.693Z,58
2023-02-27T11:56:26.672Z,58
2023-02-27T11:57:43.654Z,56.8
2023-02-27T11:59:04.010Z,56
2023-02-27T12:00:20.904Z,55.7
2023-02-27T12:01:37.705Z,55.6
2023-02-27T12:02:55.258Z,55
2023-02-27T12:04:11.843Z,55
2023-02-27T12:05:28.685Z,56
2023-02-27T12:06:45.690Z,56.6
2023-02-27T12:08:02.713Z,57.4
2023-02-27T12:09:20.071Z,58.1
2023-02-27T12:10:36.698Z,58.5
2023-02-27T12:11:53.714Z,58.3
2023-02-27T12:13:10.689Z,57.9
2023-02-27T12:14:27.749Z,57.7
2023-02-27T12:15:44.734Z,57.3
2023-02-27T12:17:01.701Z,57.5
2023-02-27T12:18:18.936Z,57.3
2023-02-27T12:19:35.778Z,56.3
2023-02-27T12:20:52.730Z,56.6
2023-02-27T12:22:09.713Z,57.5
2023-02-27T12:23:26.732Z,57.9
2023-02-27T12:24:43.737Z,58.6
2023-02-27T12:26:00.726Z,59
2023-02-27T12:27:17.896Z,59.3
2023-02-27T12:28:34.903Z,59.4
2023-02-27T12:29:51.839Z,59.6
2023-02-27T12:31:08.762Z,59.5
2023-02-27T12:32:26.041Z,58.5
2023-02-27T12:33:42.763Z,58.3
2023-02-27T12:34:59.810Z,58.1
2023-02-27T12:36:16.689Z,58.2
2023-02-27T12:37:33.734Z,57.9
2023-02-27T12:38:51.106Z,56.9
2023-02-27T12:40:08.764Z,56.4
2023-02-27T12:41:25.948Z,55.9
2023-02-27T12:42:42.747Z,56.2
2023-02-27T12:43:59.728Z,55.8
2023-02-27T12:45:16.766Z,55.7
2023-02-27T12:46:33.761Z,55.7
2023-02-27T12:47:50.807Z,55.7
2023-02-27T12:49:09.019Z,55.8
2023-02-27T12:50:24.866Z,56.4
2023-02-27T12:51:41.755Z,56.1
2023-02-27T12:52:58.724Z,56.1
2023-02-27T12:54:15.721Z,56.2
2023-02-27T12:55:32.800Z,56.2
2023-02-27T12:56:49.730Z,55.9
2023-02-27T12:58:06.799Z,55.2
2023-02-27T12:59:23.745Z,55.3
2023-02-27T13:00:40.800Z,55.6
2023-02-27T13:01:57.775Z,56.2
2023-02-27T13:03:14.789Z,57.1
2023-02-27T13:04:31.741Z,57.2
2023-02-27T13:05:48.779Z,57.3
2023-02-27T13:07:05.733Z,57
2023-02-27T13:08:22.808Z,57.1
2023-02-27T13:09:39.767Z,57.3
2023-02-27T13:10:56.889Z,57
2023-02-27T13:12:13.823Z,57
2023-02-27T13:13:30.763Z,57.1
2023-02-27T13:14:47.764Z,57.2
2023-02-27T13:16:04.793Z,57.1
2023-02-27T13:17:21.797Z,56.8
2023-02-27T13:18:38.803Z,56.9
2023-02-27T13:19:55.778Z,56.6
2023-02-27T13:21:12.834Z,56.2
2023-02-27T13:22:29.798Z,55.8
2023-02-27T13:23:46.844Z,55.3
2023-02-27T13:25:03.799Z,55
2023-02-27T13:26:20.833Z,55.2
2023-02-27T13:27:37.839Z,56
2023-02-27T13:28:54.817Z,57.5
2023-02-27T13:30:11.937Z,58.2
2023-02-27T13:31:29.141Z,59
2023-02-27T13:32:45.961Z,59.8
2023-02-27T13:34:02.819Z,60.1
2023-02-27T13:35:19.788Z,60.3
2023-02-27T13:36:36.886Z,59.9
2023-02-27T13:37:53.857Z,60
2023-02-27T13:39:11.094Z,60.2
2023-02-27T13:40:27.859Z,60.1
2023-02-27T13:41:44.889Z,59.5
2023-02-27T13:43:01.884Z,58.7
2023-02-27T13:44:18.940Z,57.9
2023-02-27T13:45:35.848Z,57.4
2023-02-27T13:46:52.871Z,56.9
2023-02-27T13:48:09.805Z,56.2
2023-02-27T13:49:29.440Z,55.6
2023-02-27T13:50:43.863Z,56
2023-02-27T13:52:00.831Z,56.3
2023-02-27T13:53:17.837Z,56.4
2023-02-27T13:54:34.840Z,56.5
2023-02-27T13:55:51.820Z,56.2
2023-02-27T13:57:08.814Z,56
2023-02-27T13:58:25.841Z,55.6
2023-02-27T13:59:42.905Z,55.1
2023-02-27T14:00:59.895Z,54.6
2023-02-27T14:02:16.899Z,54.4
2023-02-27T14:03:33.832Z,54.2
2023-02-27T14:04:50.899Z,53.9
2023-02-27T14:06:07.906Z,53.5
2023-02-27T14:07:24.855Z,53.5
2023-02-27T14:08:41.840Z,53.6
2023-02-27T14:09:58.947Z,53.5
2023-02-27T14:11:15.856Z,53.3
2023-02-27T14:12:43.889Z,53.1
2023-02-27T14:13:49.916Z,53.2
2023-02-27T14:15:06.889Z,53.4
2023-02-27T14:16:23.904Z,53.6
2023-02-27T14:17:40.882Z,53.6
2023-02-27T14:18:57.841Z,53.4
2023-02-27T14:20:14.839Z,53.2
2023-02-27T14:21:31.861Z,53.2
2023-02-27T14:22:48.918Z,52.8
2023-02-27T14:24:05.863Z,52.2
2023-02-27T14:25:22.889Z,51.9
2023-02-27T14:26:39.885Z,51.6
2023-02-27T14:28:00.167Z,51.5
2023-02-27T14:29:23.958Z,51.7
2023-02-27T14:30:41.022Z,51.3
2023-02-27T14:31:57.889Z,50.8
2023-02-27T14:33:14.945Z,50.7
2023-02-27T14:34:31.977Z,50
2023-02-27T14:35:48.925Z,50.2
2023-02-27T14:37:05.885Z,49.8
2023-02-27T14:38:23.190Z,49.5
2023-02-27T14:39:40.180Z,50
2023-02-27T14:40:56.919Z,49.9
2023-02-27T14:42:14.312Z,50.3
2023-02-27T14:43:31.016Z,50.7
2023-02-27T14:44:47.970Z,51
2023-02-27T14:46:04.951Z,51.3
2023-02-27T14:47:21.897Z,51.9
2023-02-27T14:48:39.387Z,51.9
2023-02-27T14:49:56.160Z,52.4
2023-02-27T14:51:12.922Z,52.7
2023-02-27T14:52:30.061Z,53.1
2023-02-27T14:53:46.945Z,53.2
2023-02-27T14:55:04.032Z,53.4
2023-02-27T14:56:20.947Z,53.7
2023-02-27T14:57:37.946Z,53.8
2023-02-27T14:59:03.554Z,53.5
2023-02-27T15:00:12.019Z,53
2023-02-27T15:01:29.473Z,52.6
2023-02-27T15:02:45.916Z,52
2023-02-27T15:04:02.998Z,51.6
2023-02-27T15:05:19.952Z,51.2
2023-02-27T15:06:37.519Z,50.8
2023-02-27T15:07:54.058Z,50.3
2023-02-27T15:09:10.986Z,49.6
2023-02-27T15:10:27.930Z,49
2023-02-27T15:11:54.195Z,48.5
2023-02-27T15:13:01.945Z,47.9
2023-02-27T15:14:18.963Z,47.5
2023-02-27T15:15:35.986Z,47.3
2023-02-27T15:16:55.348Z,47.9
2023-02-27T15:18:09.972Z,48.1
2023-02-27T15:19:27.045Z,48.3
2023-02-27T15:20:43.950Z,48.4
2023-02-27T15:22:02.266Z,48.5
2023-02-27T15:23:18.172Z,48.4
2023-02-27T15:24:47.741Z,48.5
2023-02-27T15:25:52.266Z,48.6
2023-02-27T15:27:08.939Z,48.8
2023-02-27T15:28:26.021Z,48.7
2023-02-27T15:29:42.977Z,48.8
2023-02-27T15:30:59.977Z,48.9
2023-02-27T15:32:17.105Z,48.8
2023-02-27T15:33:33.995Z,48.2
2023-02-27T15:34:50.972Z,47.7
2023-02-27T15:36:07.999Z,47.5
2023-02-27T15:37:25.689Z,47.3
2023-02-27T15:38:42.989Z,47.2
2023-02-27T15:40:00.034Z,47.2
2023-02-27T15:41:17.020Z,47.2
2023-02-27T15:42:34.305Z,47.2
2023-02-27T15:43:51.373Z,47.2
2023-02-27T15:45:08.190Z,47.2
2023-02-27T15:46:25.382Z,47.5
2023-02-27T15:47:43.940Z,47.7
2023-02-27T15:48:58.965Z,47.8
2023-02-27T15:50:15.986Z,48.2
2023-02-27T15:51:33.023Z,48.2
2023-02-27T15:52:49.957Z,48.1
2023-02-27T15:54:07.375Z,48
2023-02-27T15:55:24.028Z,48.1
2023-02-27T15:56:41.017Z,48.1
2023-02-27T15:58:03.003Z,48.2
2023-02-27T15:59:15.101Z,48.7
2023-02-27T16:00:31.996Z,49.4
2023-02-27T16:01:49.021Z,50.1
2023-02-27T16:03:06.080Z,50.7
2023-02-27T16:04:22.988Z,51.2
2023-02-27T16:05:40.013Z,51.6
2023-02-27T16:06:56.994Z,52
2023-02-27T16:08:15.831Z,52.4
2023-02-27T16:09:33.038Z,52.7
2023-02-27T16:10:50.064Z,53
2023-02-27T16:12:07.249Z,53.2
2023-02-27T16:13:24.060Z,53.3
2023-02-27T16:14:41.024Z,53.3
2023-02-27T16:15:58.049Z,53
2023-02-27T16:17:16.335Z,52.8
2023-02-27T16:18:33.079Z,52.5
2023-02-27T16:19:50.146Z,52.3
2023-02-27T16:21:07.051Z,52.1
2023-02-27T16:22:24.051Z,52.1
2023-02-27T16:23:41.059Z,52.3
2023-02-27T16:24:58.022Z,52.3
2023-02-27T16:26:15.036Z,52.3
2023-02-27T16:27:32.029Z,52.2
2023-02-27T16:28:49.088Z,52.2
2023-02-27T16:30:06.037Z,52.1
2023-02-27T16:31:23.101Z,52
2023-02-27T16:32:40.097Z,52
2023-02-27T16:33:57.065Z,52
2023-02-27T16:35:14.021Z,52.2
2023-02-27T16:36:31.333Z,52.2
2023-02-27T16:37:48.056Z,52.3
2023-02-27T16:39:05.072Z,52.6
2023-02-27T16:40:23.054Z,52.9
2023-02-27T16:41:40.087Z,53
2023-02-27T16:42:57.048Z,53.2
2023-02-27T16:44:14.067Z,53.1
2023-02-27T16:45:31.119Z,53.1
2023-02-27T16:46:48.117Z,53.1
2023-02-27T16:48:05.077Z,53.2
2023-02-27T16:49:22.035Z,53.3
2023-02-27T16:50:39.064Z,53.3
2023-02-27T16:51:56.049Z,53.4
2023-02-27T16:53:13.043Z,53.6
2023-02-27T16:54:30.158Z,53.7
2023-02-27T16:55:47.072Z,53.5
2023-02-27T16:57:04.141Z,53.7
2023-02-27T16:58:21.066Z,53.8
2023-02-27T16:59:38.088Z,53.6
2023-02-27T17:00:55.110Z,53.5
2023-02-27T17:02:12.137Z,53.5
2023-02-27T17:03:29.078Z,53.6
2023-02-27T17:04:46.167Z,53.5
2023-02-27T17:06:03.061Z,53.3
2023-02-27T17:07:20.094Z,53.3
2023-02-27T17:08:37.126Z,53.3
2023-02-27T17:09:54.148Z,53.8
2023-02-27T17:11:11.115Z,54.3
2023-02-27T17:12:28.137Z,54.5